Time;durP1;ratioP1;P1;durP2;ratioP2;P2;SDS_P1;SDS_P2;PMS_P1;PMS_P2;Temp;Humidity;BMP_temperature;BMP_pressure;BME280_temperature;BME280_humidity;BME280_pressure;Samples;Min_cycle;Max_cycle;Signal;HPM_P1;HPM_P2
2023/10/15 00:01:57;;;;;;;11.93;4.45;;;;;;;6.05;100.00;101771.28;4995283;28;20022;-51
2023/10/15 00:04:22;;;;;;;11.32;4.72;;;;;;;6.06;100.00;101766.84;4993113;28;20034;-51
2023/10/15 00:06:48;;;;;;;10.15;4.40;;;;;;;6.06;100.00;101773.00;4997858;28;20018;-52
2023/10/15 00:09:13;;;;;;;14.80;5.30;;;;;;;6.10;100.00;101789.56;4994133;28;20035;-51
2023/10/15 00:11:39;;;;;;;9.80;4.35;;;;;;;6.12;100.00;101790.34;4996500;28;20022;-51
2023/10/15 00:14:04;;;;;;;13.02;4.95;;;;;;;6.15;100.00;101794.63;4994157;28;20365;-53
2023/10/15 00:16:31;;;;;;;12.95;4.68;;;;;;;6.19;100.00;101802.31;4996730;28;20056;-51
2023/10/15 00:18:57;;;;;;;10.85;4.95;;;;;;;6.24;100.00;101799.50;4996860;28;20041;-51
2023/10/15 00:21:22;;;;;;;11.68;5.13;;;;;;;6.28;100.00;101801.94;4998299;28;20121;-51
2023/10/15 00:23:47;;;;;;;11.50;5.10;;;;;;;6.33;100.00;101804.41;4995928;28;20435;-52
2023/10/15 00:26:17;;;;;;;8.70;4.78;;;;;;;6.36;100.00;101801.63;5001336;28;20155;-51
2023/10/15 00:28:45;;;;;;;;;;;;;;;6.43;100.00;101800.41;4998888;28;20022;-51
2023/10/15 00:31:13;;;;;;;12.27;4.75;;;;;;;6.44;100.00;101801.28;4997098;28;19955;-52
2023/10/15 00:33:43;;;;;;;9.82;4.80;;;;;;;6.48;100.00;101797.59;4996269;28;20026;-53
2023/10/15 00:36:13;;;;;;;9.95;4.43;;;;;;;6.51;100.00;101799.22;4996913;28;20113;-52
2023/10/15 00:38:43;;;;;;;9.45;4.03;;;;;;;6.56;100.00;101797.22;4993187;28;20030;-52
2023/10/15 00:41:09;;;;;;;13.40;4.65;;;;;;;6.60;100.00;101801.47;4995039;28;20468;-52
2023/10/15 00:43:34;;;;;;;10.90;5.05;;;;;;;6.62;100.00;101789.91;4995717;28;20102;-53
2023/10/15 00:46:09;;;;;;;11.13;4.70;;;;;;;6.66;100.00;101775.66;4998777;28;20476;-52
2023/10/15 00:48:35;;;;;;;8.65;4.07;;;;;;;6.71;100.00;101783.38;5006707;28;20030;-52
2023/10/15 00:51:11;;;;;;;5.25;3.25;;;;;;;6.73;100.00;101786.78;5000757;28;20041;-51
2023/10/15 00:53:47;;;;;;;7.65;3.80;;;;;;;6.79;100.00;101775.06;4995825;28;20121;-51
2023/10/15 00:56:13;;;;;;;8.63;3.70;;;;;;;6.80;100.00;101792.66;4999140;28;20061;-52
2023/10/15 00:58:53;;;;;;;8.27;3.65;;;;;;;6.83;100.00;101797.78;4994134;28;20515;-52
2023/10/15 01:01:21;;;;;;;8.52;3.47;;;;;;;6.84;100.00;101763.41;4997885;28;20041;-49
2023/10/15 01:03:53;;;;;;;5.53;3.58;;;;;;;6.84;100.00;101768.69;4993284;28;20051;-49
2023/10/15 01:06:26;;;;;;;8.35;3.97;;;;;;;6.88;100.00;101777.31;4995690;28;20035;-51
2023/10/15 01:08:51;;;;;;;6.57;3.50;;;;;;;6.87;100.00;101767.66;4996352;28;20057;-52
2023/10/15 01:11:19;;;;;;;8.27;3.80;;;;;;;6.87;100.00;101772.09;4991851;28;20448;-52
2023/10/15 01:13:45;;;;;;;8.95;3.72;;;;;;;6.88;100.00;101774.66;4997538;28;20068;-53
2023/10/15 01:16:13;;;;;;;10.95;4.05;;;;;;;6.87;100.00;101762.38;5014526;28;20038;-50
2023/10/15 01:18:39;;;;;;;11.70;3.72;;;;;;;6.85;100.00;101764.25;4994090;28;20027;-53
2023/10/15 01:21:09;;;;;;;7.53;3.75;;;;;;;6.86;100.00;101765.94;4996820;28;20031;-52
2023/10/15 01:26:09;;;;;;;9.68;4.28;;;;;;;6.83;100.00;101758.19;4995668;28;20769;-52
2023/10/15 01:28:37;;;;;;;8.90;4.32;;;;;;;6.79;100.00;101752.16;5006473;28;20393;-52
2023/10/15 01:31:06;;;;;;;9.27;4.32;;;;;;;6.79;100.00;101749.53;4995838;28;20073;-52
2023/10/15 01:33:45;;;;;;;10.32;4.43;;;;;;;6.76;100.00;101757.59;5004144;28;20065;-50
2023/10/15 01:36:15;;;;;;;;;;;;;;;6.82;100.00;101749.38;5004403;28;20029;-49
2023/10/15 01:38:43;;;;;;;9.02;4.18;;;;;;;6.73;100.00;101744.53;5004133;28;19912;-50
2023/10/15 01:41:13;;;;;;;7.25;4.35;;;;;;;6.70;100.00;101749.97;5001826;28;20091;-49
2023/10/15 01:43:39;;;;;;;9.75;4.20;;;;;;;6.67;100.00;101758.84;5012204;28;20391;-48
2023/10/15 01:46:10;;;;;;;8.82;4.10;;;;;;;6.66;100.00;101762.44;4999204;28;20122;-48
2023/10/15 01:48:39;;;;;;;11.18;4.75;;;;;;;6.65;100.00;101762.50;4996266;28;20476;-49
2023/10/15 01:51:05;;;;;;;9.68;4.15;;;;;;;6.66;100.00;101770.38;5002500;28;20053;-52
2023/10/15 01:53:34;;;;;;;8.07;4.55;;;;;;;6.69;100.00;101776.44;4997421;28;20488;-53
2023/10/15 01:56:02;;;;;;;9.20;4.33;;;;;;;6.70;100.00;101776.38;4997837;28;20038;-53
2023/10/15 01:58:31;;;;;;;8.60;4.45;;;;;;;6.73;100.00;101772.72;4997818;28;20403;-50
2023/10/15 02:01:04;;;;;;;9.85;4.75;;;;;;;6.72;100.00;101769.22;5001330;28;20037;-52
2023/10/15 02:03:31;;;;;;;10.50;4.10;;;;;;;6.74;100.00;101769.16;4999046;28;20075;-51
2023/10/15 02:06:04;;;;;;;7.82;4.30;;;;;;;6.71;100.00;101767.53;4996897;28;20026;-49
2023/10/15 02:08:29;;;;;;;9.38;4.30;;;;;;;6.70;100.00;101764.94;5000002;28;20404;-50
2023/10/15 02:10:55;;;;;;;7.82;4.15;;;;;;;6.70;100.00;101765.81;5000335;28;20030;-49
2023/10/15 02:13:20;;;;;;;9.13;4.28;;;;;;;6.64;100.00;101759.03;4997314;28;20035;-50
2023/10/15 02:15:46;;;;;;;11.40;4.20;;;;;;;6.63;100.00;101754.66;4999940;28;20044;-49
2023/10/15 02:18:14;;;;;;;7.75;4.07;;;;;;;6.63;100.00;101752.03;4998777;28;20026;-49
2023/10/15 02:23:09;;;;;;;;;;;;;;;6.69;100.00;101748.22;5002707;28;20030;-49
2023/10/15 02:25:45;;;;;;;8.35;4.45;;;;;;;6.61;100.00;101742.44;5007261;28;19918;-49
2023/10/15 02:28:11;;;;;;;11.60;4.35;;;;;;;6.59;100.00;101745.16;4997380;28;20065;-50
2023/10/15 02:30:40;;;;;;;7.28;3.90;;;;;;;6.57;100.00;101744.38;4999151;28;20440;-50
2023/10/15 02:33:06;;;;;;;9.90;4.70;;;;;;;6.58;100.00;101747.88;4997092;28;20095;-49
2023/10/15 02:35:39;;;;;;;6.32;4.03;;;;;;;6.53;100.00;101742.81;5002866;28;20109;-48
2023/10/15 02:38:08;;;;;;;8.90;4.40;;;;;;;6.53;100.00;101745.44;5000629;28;20024;-49
2023/10/15 02:40:37;;;;;;;9.35;4.22;;;;;;;6.51;100.00;101747.28;4999443;28;20042;-49
2023/10/15 02:43:06;;;;;;;5.97;3.80;;;;;;;6.51;100.00;101749.06;5000502;28;20030;-49
2023/10/15 02:45:35;;;;;;;11.43;4.07;;;;;;;6.50;100.00;101742.94;4998436;28;20060;-49
2023/10/15 02:48:09;;;;;;;9.48;4.22;;;;;;;6.48;100.00;101750.94;4998808;28;20496;-48
2023/10/15 02:50:35;;;;;;;9.95;4.10;;;;;;;6.48;100.00;101740.38;4997631;28;20030;-49
2023/10/15 02:53:04;;;;;;;10.50;4.63;;;;;;;6.47;100.00;101738.66;4999184;28;20061;-49
2023/10/15 02:55:35;;;;;;;7.70;4.47;;;;;;;6.48;100.00;101750.09;4998314;28;20426;-49
2023/10/15 02:58:02;;;;;;;11.25;4.55;;;;;;;6.48;100.00;101750.09;4999612;28;20030;-51
2023/10/15 03:00:32;;;;;;;10.50;4.28;;;;;;;6.51;100.00;101791.31;5000955;28;20083;-49
2023/10/15 03:03:06;;;;;;;7.05;4.55;;;;;;;6.54;100.00;101799.09;5009527;28;20148;-49
2023/10/15 03:05:38;;;;;;;10.27;4.60;;;;;;;6.57;100.00;101789.25;4998795;28;20503;-48
2023/10/15 03:08:03;;;;;;;9.23;4.30;;;;;;;6.60;100.00;101780.34;5001827;28;20034;-48
2023/10/15 03:10:55;;;;;;;7.30;4.35;;;;;;;6.62;100.00;101781.97;5000559;28;20050;-49
2023/10/15 03:13:20;;;;;;;10.25;5.03;;;;;;;6.67;100.00;101792.34;4993161;28;20034;-49
2023/10/15 03:15:48;;;;;;;10.40;5.03;;;;;;;6.70;100.00;101799.28;5001396;28;20388;-49
2023/10/15 03:18:21;;;;;;;10.00;4.78;;;;;;;6.73;100.00;101800.00;5000869;28;20117;-49
2023/10/15 03:20:49;;;;;;;8.73;4.68;;;;;;;6.78;100.00;101813.84;5000687;28;20030;-49
2023/10/15 03:23:18;;;;;;;9.00;5.35;;;;;;;6.81;100.00;101815.47;4997039;28;20037;-48
2023/10/15 03:25:47;;;;;;;8.60;4.73;;;;;;;6.87;100.00;101809.91;4999397;28;20038;-49
2023/10/15 03:28:13;;;;;;;7.10;4.50;;;;;;;6.90;100.00;101814.22;4997460;28;20326;-48
2023/10/15 03:30:44;;;;;;;9.27;4.93;;;;;;;6.92;100.00;101805.28;4997186;28;20030;-49
2023/10/15 03:33:12;;;;;;;8.15;3.85;;;;;;;6.95;100.00;101812.22;5005566;28;20301;-49
2023/10/15 03:35:45;;;;;;;6.35;4.22;;;;;;;6.96;100.00;101806.00;4995153;28;20030;-49
2023/10/15 03:38:14;;;;;;;9.38;4.00;;;;;;;6.98;100.00;101801.50;4998483;28;20036;-49
2023/10/15 03:40:46;;;;;;;7.38;3.90;;;;;;;7.01;100.00;101811.91;5003960;28;20028;-49
2023/10/15 03:43:15;;;;;;;7.70;3.47;;;;;;;7.02;100.00;101817.13;4997791;28;20022;-49
2023/10/15 03:45:50;;;;;;;5.57;3.17;;;;;;;7.03;100.00;101810.94;4997227;28;20082;-48
2023/10/15 03:48:29;;;;;;;4.88;3.00;;;;;;;7.06;100.00;101803.78;5000898;28;20375;-48
2023/10/15 03:50:55;;;;;;;5.78;2.90;;;;;;;7.06;100.00;101802.03;4999087;28;20030;-48
2023/10/15 03:53:28;;;;;;;7.05;3.38;;;;;;;7.06;100.00;101809.94;4997583;28;20053;-49
2023/10/15 03:55:58;;;;;;;5.40;3.00;;;;;;;7.08;100.00;101818.66;4999268;28;20033;-49
2023/10/15 03:58:24;;;;;;;4.68;2.75;;;;;;;7.07;100.00;101821.34;4997510;28;20018;-49
2023/10/15 04:00:56;;;;;;;8.52;2.80;;;;;;;7.09;100.00;101832.69;4998424;28;20034;-48
2023/10/15 04:03:35;;;;;;;6.03;3.30;;;;;;;7.12;100.00;101838.69;4993384;28;20473;-48
2023/10/15 04:06:05;;;;;;;5.22;3.03;;;;;;;7.16;100.00;101844.69;4994598;28;20030;-49
2023/10/15 04:08:31;;;;;;;7.00;3.28;;;;;;;7.15;100.00;101845.63;4998344;28;20038;-50
2023/10/15 04:10:57;;;;;;;6.45;3.22;;;;;;;7.16;100.00;101842.94;5000460;28;20025;-49
2023/10/15 04:13:26;;;;;;;5.97;3.10;;;;;;;7.17;100.00;101843.78;5008583;28;20093;-49
2023/10/15 04:15:52;;;;;;;7.80;3.08;;;;;;;7.18;100.00;101859.56;4996066;28;20030;-49
2023/10/15 04:18:17;;;;;;;4.80;2.80;;;;;;;7.16;100.00;101853.50;4999978;28;20114;-48
2023/10/15 04:20:42;;;;;;;6.65;3.08;;;;;;;7.18;100.00;101848.16;5001186;28;20474;-51
2023/10/15 04:23:13;;;;;;;10.13;3.40;;;;;;;7.19;100.00;101836.63;4996496;28;20443;-48
2023/10/15 04:25:39;;;;;;;5.00;3.65;;;;;;;7.21;100.00;101845.34;4999283;28;20038;-52
2023/10/15 04:28:12;;;;;;;4.88;3.38;;;;;;;7.21;100.00;101821.56;4996543;28;20145;-52
2023/10/15 04:30:38;;;;;;;6.55;3.63;;;;;;;7.18;100.00;101825.22;4998431;28;20061;-52
2023/10/15 04:33:10;;;;;;;7.28;3.42;;;;;;;7.18;100.00;101825.22;4995078;28;20036;-53
2023/10/15 04:35:37;;;;;;;6.85;3.38;;;;;;;7.21;100.00;101821.56;4995200;28;20022;-50
2023/10/15 04:38:07;;;;;;;8.95;3.90;;;;;;;7.19;100.00;101824.28;4997574;28;20050;-52
2023/10/15 04:41:00;;;;;;;7.93;3.97;;;;;;;7.20;100.00;101833.06;5008211;28;20027;-53
2023/10/15 04:43:26;;;;;;;5.82;3.85;;;;;;;7.21;100.00;101826.84;4998445;28;20603;-53
2023/10/15 04:45:56;;;;;;;6.75;3.50;;;;;;;7.17;100.00;101826.13;4998334;28;20077;-52
2023/10/15 04:48:32;;;;;;;8.07;3.35;;;;;;;7.15;100.00;101814.78;4994384;28;20026;-50
2023/10/15 04:51:04;;;;;;;4.85;3.00;;;;;;;7.16;100.00;101807.69;4994478;28;20029;-49
2023/10/15 04:53:30;;;;;;;5.22;2.60;;;;;;;7.17;100.00;101791.78;4996236;28;20026;-49
2023/10/15 04:55:57;;;;;;;6.18;3.00;;;;;;;7.18;100.00;101784.72;4999314;28;20467;-50
2023/10/15 04:58:27;;;;;;;5.43;2.50;;;;;;;7.16;100.00;101786.56;5001701;28;20018;-49
2023/10/15 05:00:54;;;;;;;5.65;2.25;;;;;;;7.14;100.00;101789.28;5005771;28;20033;-49
2023/10/15 05:03:21;;;;;;;4.75;2.03;;;;;;;7.12;100.00;101785.84;5005577;28;20113;-49
2023/10/15 05:05:46;;;;;;;2.80;1.90;;;;;;;7.10;100.00;101787.72;5000259;28;20106;-49
2023/10/15 05:08:12;;;;;;;5.00;2.00;;;;;;;7.12;100.00;101783.22;4998633;28;20054;-49
2023/10/15 05:10:44;;;;;;;5.53;2.22;;;;;;;7.11;100.00;101785.94;5001701;28;20026;-50
2023/10/15 05:13:13;;;;;;;5.20;2.17;;;;;;;7.12;100.00;101787.66;5002440;28;20037;-48
2023/10/15 05:15:39;;;;;;;3.25;1.92;;;;;;;7.10;100.00;101800.09;4999144;28;20045;-52
2023/10/15 05:18:05;;;;;;;3.65;1.98;;;;;;;7.09;100.00;101791.28;4995187;28;20387;-53
2023/10/15 05:20:31;;;;;;;5.90;2.10;;;;;;;7.08;100.00;101794.88;5007007;28;20022;-55
2023/10/15 05:22:56;;;;;;;5.25;2.13;;;;;;;7.06;100.00;101809.94;5012360;28;20026;-52
2023/10/15 05:25:22;;;;;;;3.38;2.20;;;;;;;7.04;100.00;101832.91;5016064;28;20062;-53
2023/10/15 05:27:51;;;;;;;7.28;2.78;;;;;;;7.04;100.00;101847.00;5002989;28;20356;-51
2023/10/15 05:30:17;;;;;;;7.57;2.60;;;;;;;7.00;100.00;101855.13;5012639;28;20484;-55
2023/10/15 05:32:45;;;;;;;4.95;2.20;;;;;;;6.96;100.00;101857.03;5014311;28;20043;-54
2023/10/15 05:35:11;;;;;;;10.23;2.42;;;;;;;6.93;100.00;101854.53;5028286;28;20373;-50
2023/10/15 05:37:40;;;;;;;5.25;2.15;;;;;;;6.88;100.00;101858.28;5017277;28;20030;-53
2023/10/15 05:40:06;;;;;;;5.72;2.20;;;;;;;6.87;100.00;101872.44;5001227;28;20451;-51
2023/10/15 05:42:33;;;;;;;4.53;1.80;;;;;;;6.83;100.00;101883.13;5020945;28;20058;-51
2023/10/15 05:44:58;;;;;;;6.18;1.75;;;;;;;6.80;100.00;101885.06;5036080;28;20465;-51
2023/10/15 05:47:23;;;;;;;6.10;1.55;;;;;;;6.76;100.00;101881.69;5014549;28;20030;-52
2023/10/15 05:49:49;;;;;;;7.55;1.60;;;;;;;6.71;100.00;101877.53;5004799;28;20029;-51
2023/10/15 05:52:15;;;;;;;3.47;1.40;;;;;;;6.68;100.00;101867.97;5003237;28;20049;-51
2023/10/15 05:54:40;;;;;;;4.15;1.45;;;;;;;6.64;100.00;101872.53;5021515;28;20030;-52
2023/10/15 05:57:06;;;;;;;2.10;1.30;;;;;;;6.64;100.00;101863.75;5004251;28;20433;-51
2023/10/15 05:59:34;;;;;;;3.67;1.60;;;;;;;6.63;100.00;101854.13;5006748;28;20082;-52
2023/10/15 06:02:00;;;;;;;7.00;2.07;;;;;;;6.63;100.00;101848.84;4999689;28;20069;-51
2023/10/15 06:04:26;;;;;;;4.00;1.42;;;;;;;6.62;100.00;101862.97;5006171;28;20069;-50
2023/10/15 06:06:51;;;;;;;6.63;1.70;;;;;;;6.61;100.00;101866.50;5000606;28;20138;-52
2023/10/15 06:09:17;;;;;;;3.55;1.55;;;;;;;6.61;100.00;101871.78;5000598;28;20121;-51
2023/10/15 06:11:42;;;;;;;2.45;1.30;;;;;;;6.61;100.00;101862.13;4998121;28;20400;-51
2023/10/15 06:14:08;;;;;;;2.67;1.50;;;;;;;6.60;100.00;101859.53;4997763;28;20510;-50
2023/10/15 06:16:34;;;;;;;2.60;1.65;;;;;;;6.61;100.00;101862.13;4998856;28;20389;-50
2023/10/15 06:18:59;;;;;;;1.42;1.27;;;;;;;6.63;100.00;101878.72;5012886;28;20059;-52
2023/10/15 06:21:25;;;;;;;3.60;1.23;;;;;;;6.64;100.00;101877.81;4998981;28;20034;-52
2023/10/15 06:23:50;;;;;;;1.95;1.42;;;;;;;6.63;100.00;101884.00;5004172;28;20053;-51
2023/10/15 06:26:15;;;;;;;3.08;1.50;;;;;;;6.67;100.00;101882.09;4999725;28;20038;-49
2023/10/15 06:28:41;;;;;;;1.70;1.50;;;;;;;6.66;100.00;101880.38;4995143;28;20156;-50
2023/10/15 06:31:09;;;;;;;2.08;1.25;;;;;;;6.67;100.00;101882.94;4995513;28;20110;-50
2023/10/15 06:33:34;;;;;;;2.75;1.55;;;;;;;6.69;100.00;101896.06;4997664;28;20201;-49
2023/10/15 06:36:00;;;;;;;2.70;1.50;;;;;;;6.69;100.00;101888.16;4996374;28;20121;-51
2023/10/15 06:38:25;;;;;;;3.35;1.70;;;;;;;6.70;100.00;101883.75;4997257;28;20496;-50
2023/10/15 06:40:51;;;;;;;4.13;1.52;;;;;;;6.69;100.00;101882.03;4995957;28;20030;-51
2023/10/15 06:43:17;;;;;;;7.45;2.03;;;;;;;6.68;100.00;101883.81;4998274;28;20010;-51
2023/10/15 06:45:42;;;;;;;3.22;1.58;;;;;;;6.65;100.00;101873.38;5000971;28;20054;-51
2023/10/15 06:48:08;;;;;;;3.90;1.63;;;;;;;6.64;100.00;101879.59;4996816;28;20131;-50
2023/10/15 06:50:33;;;;;;;6.97;1.80;;;;;;;6.67;100.00;101877.66;4992804;28;20034;-51
2023/10/15 06:53:05;;;;;;;3.70;1.63;;;;;;;6.67;100.00;101875.03;4997854;28;20047;-51
2023/10/15 06:55:31;;;;;;;5.63;1.80;;;;;;;6.70;100.00;101876.69;5002068;28;20037;-50
2023/10/15 06:57:57;;;;;;;4.15;1.90;;;;;;;6.72;100.00;101877.47;5001243;28;20041;-50
2023/10/15 07:00:22;;;;;;;5.18;1.63;;;;;;;6.75;100.00;101887.91;4995934;28;20384;-50
2023/10/15 07:02:54;;;;;;;5.97;1.83;;;;;;;6.78;100.00;101895.69;4996384;28;20026;-50
2023/10/15 07:05:21;;;;;;;3.80;1.80;;;;;;;6.78;100.00;101898.34;4994055;28;20026;-50
2023/10/15 07:07:47;;;;;;;2.63;1.70;;;;;;;6.80;100.00;101896.47;4995718;28;20030;-51
2023/10/15 07:10:15;;;;;;;4.78;1.90;;;;;;;6.83;100.00;101914.81;4998885;28;20030;-51
2023/10/15 07:12:42;;;;;;;3.92;1.75;;;;;;;6.90;100.00;101910.13;4997225;28;20018;-50
2023/10/15 07:15:09;;;;;;;4.45;2.15;;;;;;;6.93;100.00;101911.75;5017845;28;20037;-51
2023/10/15 07:17:38;;;;;;;4.93;2.10;;;;;;;6.95;100.00;101916.06;4995423;28;20054;-50
2023/10/15 07:20:05;;;;;;;4.07;2.10;;;;;;;6.97;100.00;101916.84;4994067;28;20030;-50
2023/10/15 07:22:31;;;;;;;5.15;2.17;;;;;;;6.98;100.00;101926.50;4994583;28;20078;-51
2023/10/15 07:24:56;;;;;;;5.00;2.40;;;;;;;7.03;100.00;101923.66;4996159;28;20038;-50
2023/10/15 07:27:21;;;;;;;2.80;1.98;;;;;;;7.08;100.00;101926.97;4994279;28;20101;-51
2023/10/15 07:29:47;;;;;;;4.43;1.92;;;;;;;7.14;100.00;101936.38;4998342;28;20079;-52
2023/10/15 07:32:12;;;;;;;4.40;2.40;;;;;;;7.16;100.00;101948.63;4994101;28;20081;-50
2023/10/15 07:34:38;;;;;;;4.93;2.20;;;;;;;7.22;100.00;101948.31;4996665;28;20690;-51
2023/10/15 07:37:03;;;;;;;8.45;2.22;;;;;;;7.20;100.00;101949.31;4990536;28;20037;-51
2023/10/15 07:39:28;;;;;;;3.42;1.80;;;;;;;7.22;100.00;101953.59;5004233;28;20480;-53
2023/10/15 07:41:53;;;;;;;3.60;2.20;;;;;;;7.22;100.00;101960.69;4998072;28;20029;-52
2023/10/15 07:44:19;;;;;;;5.25;2.13;;;;;;;7.25;100.00;101949.97;4996593;28;20525;-53
2023/10/15 07:46:45;;;;;;;4.50;2.03;;;;;;;7.26;100.00;101935.84;4994459;28;20117;-54
2023/10/15 07:49:12;;;;;;;5.00;1.98;;;;;;;7.27;100.00;101928.78;4998181;28;20112;-54
2023/10/15 07:51:38;;;;;;;6.15;2.00;;;;;;;7.33;100.00;101931.16;4996482;28;20359;-52
2023/10/15 07:54:04;;;;;;;4.75;2.00;;;;;;;7.39;100.00;101937.00;4998465;28;20058;-52
2023/10/15 07:56:31;;;;;;;4.75;2.60;;;;;;;7.46;100.00;101947.28;4993838;28;20069;-49
2023/10/15 07:58:57;;;;;;;4.78;2.13;;;;;;;7.54;100.00;101953.94;4995598;28;20064;-50
2023/10/15 08:01:23;;;;;;;4.93;1.83;;;;;;;7.58;100.00;101952.03;4995823;28;20040;-49
2023/10/15 08:03:49;;;;;;;5.20;2.08;;;;;;;7.64;100.00;101958.81;4992755;28;20384;-51
2023/10/15 08:06:14;;;;;;;5.75;1.90;;;;;;;7.72;100.00;101961.94;4994943;28;20033;-51
2023/10/15 08:08:39;;;;;;;3.83;1.92;;;;;;;7.77;100.00;101965.22;5001577;28;20053;-50
2023/10/15 08:11:05;;;;;;;6.80;2.17;;;;;;;7.83;100.00;101969.38;5002216;28;20034;-52
2023/10/15 08:13:30;;;;;;;5.00;2.03;;;;;;;7.89;100.00;101979.66;4994391;28;20114;-49
2023/10/15 08:15:55;;;;;;;3.70;1.60;;;;;;;7.91;100.00;101983.97;4997825;28;20041;-51
2023/10/15 08:18:21;;;;;;;4.15;1.52;;;;;;;7.95;100.00;101980.22;5004523;28;20030;-51
2023/10/15 08:20:46;;;;;;;5.38;1.92;;;;;;;7.96;100.00;101995.19;5003060;28;20121;-51
2023/10/15 08:23:13;;;;;;;3.75;1.70;;;;;;;7.95;100.00;102004.03;4992336;28;20080;-51
2023/10/15 08:25:39;;;;;;;2.55;1.60;;;;;;;7.97;100.00;102003.97;4990997;28;20075;-51
2023/10/15 08:28:04;;;;;;;6.88;1.92;;;;;;;7.95;100.00;102005.84;4990347;28;20026;-51
2023/10/15 08:30:34;;;;;;;4.95;1.52;;;;;;;7.94;100.00;102014.69;4995911;28;20031;-52
2023/10/15 08:33:00;;;;;;;7.03;1.88;;;;;;;7.97;100.00;102023.34;4999920;28;20054;-53
2023/10/15 08:35:26;;;;;;;6.85;2.20;;;;;;;7.99;100.00;102036.50;4996892;28;20062;-50
2023/10/15 08:37:51;;;;;;;5.40;1.80;;;;;;;7.99;100.00;102044.44;5000735;28;20034;-54
2023/10/15 08:40:17;;;;;;;9.15;1.80;;;;;;;7.96;100.00;102044.59;4997306;28;20778;-53
2023/10/15 08:42:49;;;;;;;5.28;2.13;;;;;;;7.94;100.00;102051.72;5006858;28;20045;-54
2023/10/15 08:45:16;;;;;;;7.10;1.95;;;;;;;7.91;100.00;102054.50;4996922;28;20045;-51
2023/10/15 08:47:45;;;;;;;6.75;2.00;;;;;;;7.92;100.00;102057.09;4996429;28;20033;-51
2023/10/15 08:50:12;;;;;;;3.72;1.73;;;;;;;7.94;100.00;102068.47;4994491;28;20484;-50
2023/10/15 08:52:39;;;;;;;6.45;2.25;;;;;;;7.99;100.00;102072.69;5000776;28;20030;-51
2023/10/15 08:55:06;;;;;;;8.60;2.58;;;;;;;8.02;100.00;102072.56;4992859;28;20031;-51
2023/10/15 08:57:32;;;;;;;6.47;2.90;;;;;;;8.04;100.00;102082.13;4996216;28;20087;-53
2023/10/15 08:59:59;;;;;;;5.45;2.80;;;;;;;8.06;100.00;102095.28;4994553;28;20026;-52
2023/10/15 09:02:24;;;;;;;8.05;2.70;;;;;;;8.07;100.00;102097.00;4990251;28;20033;-52
2023/10/15 09:04:52;;;;;;;5.00;2.42;;;;;;;8.08;100.00;102093.44;4995190;28;20043;-53
2023/10/15 09:07:19;;;;;;;10.83;2.40;;;;;;;8.09;100.00;102097.78;4997076;28;20109;-51
2023/10/15 09:09:44;;;;;;;6.07;1.90;;;;;;;8.12;100.00;102109.09;5002047;28;20059;-50
2023/10/15 09:12:13;;;;;;;5.70;1.83;;;;;;;8.12;100.00;102111.72;5004875;28;20379;-51
2023/10/15 09:14:46;;;;;;;3.45;1.42;;;;;;;8.13;100.00;102116.13;4998113;28;20049;-51
2023/10/15 09:17:14;;;;;;;3.20;1.50;;;;;;;8.15;100.00;102119.53;4998716;28;20034;-53
2023/10/15 09:19:41;;;;;;;3.00;1.60;;;;;;;8.18;100.00;102128.25;4998965;28;20036;-51
2023/10/15 09:22:07;;;;;;;3.90;1.42;;;;;;;8.15;100.00;102123.97;4998548;28;20068;-50
2023/10/15 09:24:33;;;;;;;5.20;2.03;;;;;;;8.22;100.00;102124.56;5003739;28;20105;-51
2023/10/15 09:26:58;;;;;;;4.18;1.95;;;;;;;8.22;100.00;102124.56;5011188;28;20029;-52
2023/10/15 09:29:24;;;;;;;5.13;1.48;;;;;;;8.25;100.00;102105.88;5002980;28;20033;-52
2023/10/15 09:31:56;;;;;;;2.20;1.20;;;;;;;8.30;100.00;102125.06;4957342;28;20061;-51
2023/10/15 09:34:21;;;;;;;4.10;1.40;;;;;;;8.36;100.00;102123.91;4996478;28;20451;-50
2023/10/15 09:36:47;;;;;;;4.40;1.73;;;;;;;8.40;100.00;102123.69;4997964;28;20101;-50
2023/10/15 09:39:13;;;;;;;2.47;1.35;;;;;;;8.42;100.00;102115.69;4992334;28;20035;-51
2023/10/15 09:41:41;;;;;;;2.63;1.27;;;;;;;8.49;100.00;102111.84;4997512;28;20033;-51
2023/10/15 09:44:14;;;;;;;4.82;1.50;;;;;;;8.54;100.00;102133.66;5001812;28;20045;-50
2023/10/15 09:46:41;;;;;;;3.17;1.23;;;;;;;8.58;100.00;102131.75;5002983;28;20050;-51
2023/10/15 09:49:07;;;;;;;5.00;1.20;;;;;;;8.62;100.00;102130.66;4997431;28;20036;-52
2023/10/15 09:51:33;;;;;;;1.70;1.13;;;;;;;8.60;100.00;102133.38;5029391;28;20079;-51
2023/10/15 09:53:59;;;;;;;5.50;1.83;;;;;;;8.59;100.00;102139.59;4999401;28;20430;-50
2023/10/15 09:56:28;;;;;;;6.22;1.67;;;;;;;8.62;100.00;102144.75;4998685;28;20034;-52
2023/10/15 09:58:53;;;;;;;2.85;1.20;;;;;;;8.64;100.00;102142.91;4997553;28;20063;-50
2023/10/15 10:01:28;;;;;;;5.45;1.60;;;;;;;8.65;100.00;102138.47;4996785;28;20054;-51
2023/10/15 10:04:05;;;;;;;3.80;1.17;;;;;;;8.67;100.00;102144.53;4997472;28;20038;-50
2023/10/15 10:06:57;;;;;;;3.50;1.65;;;;;;;8.76;100.00;102145.88;4997408;28;20109;-51
2023/10/15 10:09:58;;;;;;;2.65;1.27;;;;;;;8.80;100.00;102147.47;5001107;28;20392;-51
2023/10/15 10:13:02;;;;;;;5.72;1.08;;;;;;;8.89;100.00;102149.66;5009169;28;20029;-51
2023/10/15 10:15:54;;;;;;;2.85;1.00;;;;;;;8.92;100.00;102160.09;5011690;28;20697;-52
2023/10/15 10:18:21;;;;;;;3.72;1.38;;;;;;;8.91;100.00;102163.72;4996330;28;20022;-52
2023/10/15 10:20:48;;;;;;;4.60;1.30;;;;;;;8.93;100.00;102161.84;4997598;28;20354;-52
2023/10/15 10:23:14;;;;;;;3.08;1.20;;;;;;;8.98;100.00;102162.47;4996599;28;20441;-52
2023/10/15 10:25:45;;;;;;;3.50;1.00;;;;;;;9.03;100.00;102156.94;4998001;28;20026;-51
2023/10/15 10:28:15;;;;;;;3.08;1.40;;;;;;;9.05;100.00;102163.88;4994060;28;20542;-52
2023/10/15 10:30:58;;;;;;;2.70;1.33;;;;;;;9.11;100.00;102173.34;4997718;28;20049;-53
2023/10/15 10:33:44;;;;;;;3.30;1.35;;;;;;;9.18;100.00;102174.75;4996388;28;20121;-51
2023/10/15 10:36:14;;;;;;;1.65;1.20;;;;;;;9.23;100.00;102170.06;4993259;28;20030;-52
2023/10/15 10:38:39;;;;;;;;;;;;;;;9.34;100.00;102173.97;4994529;28;20026;-52
2023/10/15 10:41:13;;;;;;;4.35;1.75;;;;;;;9.32;100.00;102179.34;4998294;28;19943;-51
2023/10/15 10:43:40;;;;;;;3.85;1.52;;;;;;;9.34;100.00;102179.28;5006907;28;20125;-52
2023/10/15 10:46:06;;;;;;;4.90;1.67;;;;;;;9.42;100.00;102179.75;4997585;28;20055;-53
2023/10/15 10:48:33;;;;;;;4.90;1.80;;;;;;;9.54;100.00;102183.56;5003246;28;20090;-51
2023/10/15 10:51:52;;;;;;;5.25;1.60;;;;;;;9.61;100.00;102188.50;4999686;28;20491;-53
2023/10/15 10:53:59;;;;;;;3.65;1.42;;;;;;;9.72;100.00;102189.75;5005387;28;20049;-53
2023/10/15 10:56:44;;;;;;;2.47;1.60;;;;;;;9.82;100.00;102181.25;4995534;28;20387;-50
2023/10/15 10:59:11;;;;;;;5.47;2.00;;;;;;;9.87;100.00;102183.63;4993836;28;20289;-51
2023/10/15 11:01:47;;;;;;;7.10;1.85;;;;;;;9.92;100.00;102183.41;4993039;28;20037;-52
2023/10/15 11:04:16;;;;;;;4.97;1.70;;;;;;;9.92;100.00;102186.06;4998984;28;20026;-52
2023/10/15 11:06:45;;;;;;;8.30;1.65;;;;;;;9.91;100.00;102185.19;4996840;28;20042;-53
2023/10/15 11:09:19;;;;;;;4.00;1.35;;;;;;;9.91;100.00;102189.63;4996617;28;20571;-50
2023/10/15 11:11:51;;;;;;;4.95;1.10;;;;;;;9.89;100.00;102199.47;4998011;28;20044;-53
2023/10/15 11:14:18;;;;;;;6.20;1.40;;;;;;;9.88;100.00;102192.47;4998560;28;20062;-51
2023/10/15 11:16:45;;;;;;;4.18;1.63;;;;;;;9.88;99.81;102197.78;4998744;28;20071;-52
2023/10/15 11:19:17;;;;;;;6.50;1.10;;;;;;;9.94;100.00;102189.47;4995202;28;20041;-52
2023/10/15 11:21:43;;;;;;;4.72;1.25;;;;;;;9.91;100.00;102190.50;4995964;28;20126;-51
2023/10/15 11:24:09;;;;;;;3.22;1.13;;;;;;;9.91;100.00;102189.63;5001468;28;20062;-51
2023/10/15 11:26:42;;;;;;;6.28;1.83;;;;;;;9.96;100.00;102191.13;4997627;28;20029;-53
2023/10/15 11:29:09;;;;;;;4.05;1.95;;;;;;;9.96;98.63;102188.47;4997312;28;20031;-50
2023/10/15 11:31:36;;;;;;;3.95;1.27;;;;;;;10.01;100.00;102190.88;5000060;28;20387;-52
2023/10/15 11:34:01;;;;;;;4.72;1.42;;;;;;;10.04;100.00;102198.66;4998208;28;20024;-52
2023/10/15 11:36:28;;;;;;;3.15;1.50;;;;;;;10.06;98.85;102211.84;4995851;28;20449;-54